createdAt,value
2022-07-28T00:00:39.695Z,4.00
2022-07-28T00:03:09.071Z,4.00
2022-07-28T00:05:39.671Z,3.50
2022-07-28T00:08:09.155Z,3.00
2022-07-28T00:10:38.960Z,4.50
2022-07-28T00:13:08.393Z,6.00
2022-07-28T00:15:37.869Z,4.50
2022-07-28T00:18:07.562Z,4.00
2022-07-28T00:20:37.091Z,4.75
2022-07-28T00:23:06.936Z,3.00
2022-07-28T00:25:36.650Z,4.00
2022-07-28T00:28:07.017Z,4.00
2022-07-28T00:30:36.942Z,4.00
2022-07-28T00:33:06.930Z,4.00
2022-07-28T00:35:38.131Z,5.00
2022-07-28T00:38:08.058Z,4.00
2022-07-28T00:41:00.167Z,5.00
2022-07-28T00:43:30.247Z,4.50
2022-07-28T00:46:00.240Z,5.00
2022-07-28T00:48:30.139Z,4.00
2022-07-28T00:51:00.089Z,5.00
2022-07-28T00:53:29.955Z,5.75
2022-07-28T00:56:03.313Z,4.50
2022-07-28T00:58:40.553Z,6.00
2022-07-28T01:01:14.832Z,4.75
2022-07-28T01:03:46.400Z,4.50
2022-07-28T01:06:34.344Z,5.00
2022-07-28T01:09:24.520Z,5.75
2022-07-28T01:12:20.775Z,6.50
2022-07-28T01:14:51.335Z,6.50
2022-07-28T01:17:28.496Z,4.75
2022-07-28T01:20:17.845Z,8.25
2022-07-28T01:23:00.643Z,4.00
2022-07-28T01:25:48.318Z,3.00
2022-07-28T01:28:44.481Z,4.00
2022-07-28T01:31:18.756Z,5.25
2022-07-28T01:33:51.324Z,4.50
2022-07-28T01:36:25.167Z,4.50
2022-07-28T01:38:55.746Z,3.00
2022-07-28T01:41:27.287Z,5.25
2022-07-28T01:44:07.285Z,3.25
2022-07-28T01:46:38.252Z,4.25
2022-07-28T01:49:09.318Z,4.00
2022-07-28T01:51:40.891Z,4.00
2022-07-28T01:54:11.477Z,5.00
2022-07-28T01:56:42.562Z,3.50
2022-07-28T01:59:14.416Z,4.00
2022-07-28T02:01:46.611Z,6.50
2022-07-28T02:04:30.681Z,5.00
2022-07-28T02:07:04.792Z,5.50
2022-07-28T02:09:36.476Z,5.00
2022-07-28T02:12:06.837Z,5.75
2022-07-28T02:14:40.892Z,11.50
2022-07-28T02:17:15.814Z,13.00
2022-07-28T02:19:47.132Z,12.25
2022-07-28T02:22:19.141Z,10.00
2022-07-28T02:24:58.595Z,8.50
2022-07-28T02:27:39.920Z,8.50
2022-07-28T02:30:27.121Z,6.75
2022-07-28T02:33:04.679Z,10.25
2022-07-28T02:35:38.101Z,7.00
2022-07-28T02:38:15.911Z,5.00
2022-07-28T02:54:25.758Z,4.25
2022-07-28T02:59:26.111Z,4.25
2022-07-28T03:01:24.441Z,4.75
2022-07-28T03:07:50.933Z,4.00
2022-07-28T03:10:52.667Z,5.00
2022-07-28T03:14:20.159Z,4.00
2022-07-28T03:16:55.696Z,3.00
2022-07-28T03:19:51.919Z,5.00
2022-07-28T03:35:26.661Z,4.00
2022-07-28T03:38:32.584Z,3.75
2022-07-28T03:41:14.486Z,2.75
2022-07-28T03:44:26.968Z,4.00
2022-07-28T03:47:01.826Z,4.25
2022-07-28T03:49:53.157Z,6.00
2022-07-28T03:52:34.944Z,7.00
2022-07-28T03:55:28.439Z,8.25
2022-07-28T04:03:55.519Z,6.00
2022-07-28T04:06:53.032Z,5.25
2022-07-28T04:09:22.988Z,8.00
2022-07-28T04:11:52.977Z,6.00
2022-07-28T04:14:31.439Z,5.75
2022-07-28T04:17:04.892Z,5.75
2022-07-28T04:19:37.954Z,6.00
2022-07-28T04:22:10.431Z,6.00
2022-07-28T04:25:14.345Z,5.00
2022-07-28T04:28:59.227Z,5.00
2022-07-28T04:31:58.790Z,3.00
2022-07-28T04:48:19.764Z,5.00
2022-07-28T04:51:54.093Z,4.75
2022-07-28T04:54:57.239Z,3.00
2022-07-28T05:07:52.204Z,3.50
2022-07-28T05:10:22.712Z,4.00
2022-07-28T05:12:56.040Z,2.25
2022-07-28T05:15:29.289Z,3.00
2022-07-28T05:17:59.258Z,3.25
2022-07-28T05:20:30.012Z,3.50
2022-07-28T05:23:06.814Z,3.00
2022-07-28T05:25:38.778Z,2.00
2022-07-28T05:28:17.048Z,3.00
2022-07-28T05:30:47.754Z,3.75
2022-07-28T05:33:18.169Z,3.00
2022-07-28T05:35:55.874Z,3.25
2022-07-28T05:38:30.155Z,2.00
2022-07-28T05:43:58.455Z,2.75
2022-07-28T05:46:54.594Z,2.00
2022-07-28T05:49:29.899Z,1.25
2022-07-28T05:52:03.310Z,1.75
2022-07-28T05:54:35.754Z,2.75
2022-07-28T05:57:05.804Z,2.00
2022-07-28T05:59:35.866Z,1.00
2022-07-28T06:02:06.849Z,1.00
2022-07-28T06:04:37.280Z,1.00
2022-07-28T06:07:07.833Z,1.50
2022-07-28T06:09:42.010Z,1.50
2022-07-28T06:12:15.008Z,1.00
2022-07-28T06:14:46.151Z,1.75
2022-07-28T06:17:24.985Z,0.50
2022-07-28T06:19:55.630Z,1.00
2022-07-28T06:22:25.636Z,1.50
2022-07-28T06:24:58.671Z,1.00
2022-07-28T06:27:40.797Z,2.50
2022-07-28T06:30:17.994Z,2.25
2022-07-28T06:32:52.750Z,0.75
2022-07-28T06:35:28.733Z,2.00
2022-07-28T06:37:59.200Z,1.75
2022-07-28T06:40:29.659Z,3.00
2022-07-28T06:43:07.646Z,2.00
2022-07-28T06:45:42.089Z,1.00
2022-07-28T06:48:37.916Z,1.00
2022-07-28T06:54:50.612Z,2.00
2022-07-28T06:57:37.239Z,1.50
2022-07-28T07:00:36.500Z,1.00
2022-07-28T07:17:13.216Z,1.00
2022-07-28T07:19:55.861Z,1.00
2022-07-28T07:22:26.751Z,0.00
2022-07-28T07:25:09.016Z,0.00
2022-07-28T07:27:42.957Z,1.00
2022-07-28T07:30:13.890Z,0.50
2022-07-28T07:32:50.778Z,1.00
2022-07-28T07:35:21.549Z,0.75
2022-07-28T07:37:52.270Z,0.75
2022-07-28T07:40:25.157Z,1.00
2022-07-28T07:42:55.909Z,1.25
2022-07-28T07:45:27.735Z,1.50
2022-07-28T07:48:01.971Z,1.00
2022-07-28T07:50:33.191Z,1.50
2022-07-28T07:53:06.469Z,1.00
2022-07-28T07:55:39.926Z,1.50
2022-07-28T07:58:09.899Z,2.00
2022-07-28T08:00:39.705Z,2.50
2022-07-28T08:03:22.657Z,2.00
2022-07-28T08:05:58.283Z,1.50
2022-07-28T08:08:32.465Z,2.00
2022-07-28T08:11:04.651Z,2.00
2022-07-28T08:13:42.226Z,2.00
2022-07-28T08:16:14.026Z,2.00
2022-07-28T08:18:52.722Z,2.25
2022-07-28T08:21:57.578Z,3.00
2022-07-28T08:37:56.558Z,2.00
2022-07-28T08:40:27.689Z,2.00
2022-07-28T08:42:57.744Z,3.00
2022-07-28T08:45:58.779Z,3.00
2022-07-28T08:49:27.199Z,3.00
2022-07-28T08:52:27.191Z,3.75
2022-07-28T08:55:31.852Z,2.00
2022-07-28T08:58:40.694Z,3.00
2022-07-28T09:01:21.276Z,2.50
2022-07-28T09:03:54.750Z,2.75
2022-07-28T09:06:43.818Z,2.00
2022-07-28T09:09:13.954Z,3.00
2022-07-28T09:11:44.564Z,3.00
2022-07-28T09:14:14.798Z,2.50
2022-07-28T09:16:46.040Z,2.00
2022-07-28T09:19:16.330Z,3.50
2022-07-28T09:21:46.141Z,2.00
2022-07-28T09:24:35.619Z,2.00
2022-07-28T09:27:10.484Z,3.00
2022-07-28T09:29:43.602Z,2.50
2022-07-28T09:32:26.487Z,2.00
2022-07-28T09:35:03.067Z,3.00
2022-07-28T09:37:36.247Z,2.00
2022-07-28T09:40:13.832Z,2.25
2022-07-28T09:42:57.042Z,2.00
2022-07-28T09:46:18.302Z,3.25
2022-07-28T09:52:43.509Z,3.25
2022-07-28T09:56:00.940Z,2.25
2022-07-28T10:02:28.826Z,4.00
2022-07-28T10:05:06.908Z,2.00
2022-07-28T10:21:24.935Z,3.75
2022-07-28T10:24:39.165Z,3.25
2022-07-28T10:27:14.761Z,2.75
2022-07-28T10:29:45.917Z,4.00
2022-07-28T10:32:33.628Z,3.25
2022-07-28T10:35:08.895Z,3.00
2022-07-28T10:37:48.370Z,4.00
2022-07-28T10:40:20.632Z,3.25
2022-07-28T10:46:04.943Z,5.00
2022-07-28T10:48:31.765Z,3.25
2022-07-28T10:51:06.070Z,5.00
2022-07-28T10:53:55.606Z,3.75
2022-07-28T10:56:57.111Z,2.50
2022-07-28T10:59:45.352Z,4.00
2022-07-28T11:02:34.361Z,3.00
2022-07-28T11:16:47.284Z,3.50
2022-07-28T11:23:02.239Z,3.75
2022-07-28T11:26:11.786Z,3.25
2022-07-28T11:29:02.628Z,3.00
2022-07-28T11:31:48.140Z,3.00
2022-07-28T11:34:18.122Z,3.75
2022-07-28T11:37:37.816Z,3.00
2022-07-28T11:44:11.567Z,4.25
2022-07-28T11:47:34.223Z,5.25
2022-07-28T11:59:49.985Z,4.00
2022-07-28T12:02:32.736Z,5.00
2022-07-28T12:05:14.099Z,5.00
2022-07-28T12:07:46.074Z,4.25
2022-07-28T12:10:56.073Z,4.00
2022-07-28T12:13:30.135Z,4.00
2022-07-28T12:16:00.399Z,4.75
2022-07-28T12:18:30.422Z,4.75
2022-07-28T12:21:04.863Z,6.00
2022-07-28T12:23:49.724Z,4.25
2022-07-28T12:26:40.990Z,5.00
2022-07-28T12:32:59.063Z,4.25
2022-07-28T12:35:40.813Z,4.50
2022-07-28T12:38:28.884Z,2.00
2022-07-28T12:41:18.658Z,2.50
2022-07-28T12:43:56.384Z,5.00
2022-07-28T12:46:28.515Z,4.00
2022-07-28T12:49:03.259Z,5.00
2022-07-28T12:51:34.001Z,3.75
2022-07-28T12:54:05.042Z,3.75
2022-07-28T12:56:55.734Z,4.00
2022-07-28T13:10:00.539Z,5.00
2022-07-28T13:12:37.567Z,4.50
2022-07-28T13:15:18.206Z,4.00
2022-07-28T13:18:21.991Z,3.75
2022-07-28T13:23:41.992Z,3.00
2022-07-28T13:26:12.720Z,4.00
2022-07-28T13:36:01.397Z,3.75
2022-07-28T13:38:39.054Z,4.25
2022-07-28T13:44:08.958Z,6.00
2022-07-28T13:46:50.017Z,3.25
2022-07-28T13:49:25.768Z,4.00
2022-07-28T13:51:56.286Z,4.00
2022-07-28T13:54:31.707Z,4.50
2022-07-28T13:57:04.454Z,4.00
2022-07-28T13:59:36.271Z,4.00
2022-07-28T14:02:15.883Z,6.00
2022-07-28T14:04:50.687Z,4.75
2022-07-28T14:07:23.377Z,3.75
2022-07-28T14:09:56.734Z,5.00
2022-07-28T14:12:27.940Z,4.00
2022-07-28T14:14:59.889Z,4.00
2022-07-28T14:17:43.448Z,4.75
2022-07-28T14:20:53.121Z,4.00
2022-07-28T14:23:26.037Z,5.25
2022-07-28T14:26:18.443Z,4.50
2022-07-28T14:28:50.271Z,3.75
2022-07-28T14:31:40.719Z,5.00
2022-07-28T14:34:36.137Z,5.00
2022-07-28T14:37:09.171Z,6.00
2022-07-28T14:39:48.893Z,7.25
2022-07-28T14:43:02.908Z,5.75
2022-07-28T14:46:00.540Z,4.50
2022-07-28T14:48:41.730Z,6.00
2022-07-28T14:54:53.637Z,5.50
2022-07-28T14:57:54.858Z,4.75
2022-07-28T15:00:48.008Z,7.00
2022-07-28T15:03:21.331Z,5.75
2022-07-28T15:05:52.384Z,5.00
2022-07-28T15:08:28.834Z,5.50
2022-07-28T15:11:06.007Z,5.25
2022-07-28T15:13:37.585Z,5.00
2022-07-28T15:16:09.059Z,6.00
2022-07-28T15:18:45.458Z,6.75
2022-07-28T15:21:18.978Z,5.25
2022-07-28T15:23:55.870Z,6.00
2022-07-28T15:26:26.917Z,6.00
2022-07-28T15:29:00.680Z,7.00
2022-07-28T15:31:31.180Z,6.75
2022-07-28T15:34:02.894Z,5.50
2022-07-28T15:36:35.740Z,5.50
2022-07-28T15:39:10.737Z,7.00
2022-07-28T15:41:42.686Z,7.00
2022-07-28T15:44:14.618Z,7.00
2022-07-28T15:46:51.587Z,5.50
2022-07-28T15:49:22.879Z,6.75
2022-07-28T15:51:57.564Z,7.00
2022-07-28T15:54:31.745Z,5.25
2022-07-28T15:57:02.703Z,6.25
2022-07-28T15:59:50.170Z,8.25
2022-07-28T16:02:21.688Z,6.75
2022-07-28T16:05:00.328Z,6.00
2022-07-28T16:07:32.574Z,5.50
2022-07-28T16:10:10.607Z,7.00
2022-07-28T16:12:41.054Z,6.75
2022-07-28T16:15:11.838Z,7.00
2022-07-28T16:17:43.882Z,7.00
2022-07-28T16:20:14.806Z,6.50
2022-07-28T16:22:45.833Z,7.50
2022-07-28T16:25:19.314Z,6.25
2022-07-28T16:27:51.052Z,8.25
2022-07-28T16:30:25.613Z,7.00
2022-07-28T16:32:56.549Z,7.00
2022-07-28T16:35:27.670Z,6.50
2022-07-28T16:37:58.607Z,7.00
2022-07-28T16:40:30.125Z,7.00
2022-07-28T16:43:04.093Z,6.75
2022-07-28T16:45:36.245Z,7.50
2022-07-28T16:48:06.694Z,7.25
2022-07-28T16:50:37.353Z,7.00
2022-07-28T16:53:10.822Z,6.25
2022-07-28T16:55:44.082Z,6.00
2022-07-28T16:58:14.674Z,5.25
2022-07-28T17:00:44.791Z,7.25
2022-07-28T17:03:14.761Z,7.25
2022-07-28T17:05:45.195Z,7.00
2022-07-28T17:08:16.340Z,5.50
2022-07-28T17:10:47.140Z,7.00
2022-07-28T17:13:18.409Z,8.00
2022-07-28T17:15:49.230Z,8.00
2022-07-28T17:18:19.561Z,7.50
2022-07-28T17:20:49.893Z,8.50
2022-07-28T17:23:20.260Z,8.00
2022-07-28T17:26:21.169Z,7.50
2022-07-28T17:28:43.790Z,6.00
2022-07-28T17:31:15.423Z,6.75
2022-07-28T17:33:45.589Z,6.50
2022-07-28T17:36:15.584Z,7.25
2022-07-28T17:38:45.546Z,6.75
2022-07-28T17:41:15.876Z,6.00
2022-07-28T17:43:46.552Z,7.00
2022-07-28T17:46:16.512Z,7.00
2022-07-28T17:48:51.985Z,6.25
2022-07-28T17:51:22.210Z,7.75
2022-07-28T17:53:52.018Z,7.50
2022-07-28T17:56:25.513Z,8.00
2022-07-28T17:58:56.170Z,6.50
2022-07-28T18:01:26.301Z,7.00
2022-07-28T18:03:59.562Z,4.00
2022-07-28T18:06:32.667Z,7.25
2022-07-28T18:09:07.007Z,5.00
2022-07-28T18:11:56.862Z,9.00
2022-07-28T18:14:29.952Z,7.00
2022-07-28T18:17:00.895Z,7.00
2022-07-28T18:19:30.727Z,4.75
2022-07-28T18:22:00.509Z,6.00
2022-07-28T18:24:30.361Z,7.50
2022-07-28T18:27:00.799Z,7.00
2022-07-28T18:29:38.181Z,8.00
2022-07-28T18:32:10.252Z,7.00
2022-07-28T18:34:41.878Z,8.00
2022-07-28T18:37:12.271Z,7.50
2022-07-28T18:39:42.372Z,6.25
2022-07-28T18:42:13.391Z,7.25
2022-07-28T18:44:44.125Z,6.75
2022-07-28T18:47:14.514Z,6.00
2022-07-28T18:49:44.191Z,5.00
2022-07-28T18:52:14.188Z,6.25
2022-07-28T18:54:44.105Z,7.50
2022-07-28T18:57:15.090Z,7.75
2022-07-28T18:59:50.167Z,8.00
2022-07-28T19:02:22.115Z,6.25
2022-07-28T19:04:57.277Z,7.50
2022-07-28T19:07:27.281Z,7.25
2022-07-28T19:09:57.247Z,6.00
2022-07-28T19:12:28.635Z,7.75
2022-07-28T19:14:59.245Z,7.00
2022-07-28T19:17:29.499Z,7.25
2022-07-28T19:20:00.743Z,8.00
2022-07-28T19:22:30.999Z,5.50
2022-07-28T19:25:00.841Z,6.00
2022-07-28T19:27:30.696Z,7.00
2022-07-28T19:30:01.557Z,7.25
2022-07-28T19:32:31.011Z,6.50
2022-07-28T19:35:00.493Z,7.00
2022-07-28T19:37:30.214Z,8.50
2022-07-28T19:39:59.871Z,6.25
2022-07-28T19:42:31.554Z,7.50
2022-07-28T19:45:01.582Z,8.00
2022-07-28T19:47:31.217Z,7.00
2022-07-28T19:50:00.710Z,8.25
2022-07-28T19:52:30.775Z,9.25
2022-07-28T19:55:00.840Z,7.00
2022-07-28T19:57:30.649Z,7.00
2022-07-28T20:00:00.492Z,9.75
2022-07-28T20:02:31.568Z,9.00
2022-07-28T20:05:01.061Z,10.00
2022-07-28T20:07:30.390Z,11.25
2022-07-28T20:10:00.568Z,14.00
2022-07-28T20:12:35.799Z,16.50
2022-07-28T20:15:06.783Z,14.25
2022-07-28T20:17:38.866Z,11.00
2022-07-28T20:20:13.057Z,12.00
2022-07-28T20:22:43.450Z,11.00
2022-07-28T20:25:14.449Z,12.25
2022-07-28T20:27:44.272Z,10.50
2022-07-28T20:30:14.830Z,10.75
2022-07-28T20:32:45.505Z,11.00
2022-07-28T20:35:15.280Z,12.00
2022-07-28T20:37:45.058Z,12.00
2022-07-28T20:40:14.396Z,11.25
2022-07-28T20:42:47.499Z,10.75
2022-07-28T20:45:19.108Z,10.75
2022-07-28T20:47:48.447Z,11.75
2022-07-28T20:50:17.774Z,9.75
2022-07-28T20:52:47.132Z,9.25
2022-07-28T20:55:16.548Z,9.00
2022-07-28T20:57:53.770Z,9.00
2022-07-28T21:00:25.333Z,8.00
2022-07-28T21:02:54.791Z,11.00
2022-07-28T21:05:34.751Z,10.00
2022-07-28T21:08:09.536Z,9.00
2022-07-28T21:10:46.059Z,11.00
2022-07-28T21:13:15.522Z,9.00
2022-07-28T21:15:44.938Z,10.25
2022-07-28T21:18:14.492Z,9.00
2022-07-28T21:20:43.823Z,8.75
2022-07-28T21:23:13.672Z,9.25
2022-07-28T21:25:45.185Z,9.25
2022-07-28T21:28:33.372Z,10.00
2022-07-28T21:31:02.954Z,8.00
2022-07-28T21:33:32.398Z,8.75
2022-07-28T21:36:01.906Z,10.00
2022-07-28T21:38:31.252Z,7.75
2022-07-28T21:41:00.546Z,10.50
2022-07-28T21:43:30.088Z,8.75
2022-07-28T21:45:59.498Z,8.50
2022-07-28T21:48:29.172Z,10.50
2022-07-28T21:50:58.540Z,9.50
2022-07-28T21:53:27.842Z,9.25
2022-07-28T21:55:58.382Z,11.00
2022-07-28T21:58:27.713Z,10.50
2022-07-28T22:01:02.267Z,8.50
2022-07-28T22:03:32.103Z,8.50
2022-07-28T22:06:01.396Z,11.00
2022-07-28T22:08:30.747Z,8.50
2022-07-28T22:11:00.116Z,9.00
2022-07-28T22:13:30.707Z,10.00
2022-07-28T22:16:00.319Z,7.50
2022-07-28T22:18:30.190Z,8.50
2022-07-28T22:20:59.604Z,9.50
2022-07-28T22:23:30.100Z,8.75
2022-07-28T22:25:59.830Z,10.50
2022-07-28T22:28:30.238Z,9.25
2022-07-28T22:31:09.343Z,9.75
2022-07-28T22:33:40.181Z,10.00
2022-07-28T22:36:12.662Z,10.00
2022-07-28T22:38:42.416Z,8.75
2022-07-28T22:41:11.872Z,10.25
2022-07-28T22:43:41.475Z,9.75
2022-07-28T22:46:11.708Z,8.00
2022-07-28T22:48:41.578Z,11.50
2022-07-28T22:51:14.684Z,10.75
2022-07-28T22:53:44.027Z,9.00
2022-07-28T22:56:13.465Z,8.75
2022-07-28T22:58:43.294Z,10.00
2022-07-28T23:01:12.876Z,8.00
2022-07-28T23:03:43.763Z,8.00
2022-07-28T23:06:15.570Z,9.00
2022-07-28T23:08:45.059Z,10.00
2022-07-28T23:11:14.615Z,8.50
2022-07-28T23:13:43.993Z,9.00
2022-07-28T23:16:14.002Z,8.75
2022-07-28T23:18:43.882Z,9.75
2022-07-28T23:21:14.226Z,9.00
2022-07-28T23:23:43.931Z,8.50
2022-07-28T23:26:16.791Z,9.00
2022-07-28T23:28:46.624Z,10.00
2022-07-28T23:31:16.295Z,8.50
2022-07-28T23:33:54.998Z,7.75
2022-07-28T23:36:27.887Z,8.75
2022-07-28T23:38:58.492Z,8.25
2022-07-28T23:41:28.498Z,9.00
2022-07-28T23:43:57.877Z,7.00
2022-07-28T23:46:27.386Z,8.75
2022-07-28T23:48:56.939Z,7.25
2022-07-28T23:51:46.795Z,6.50
2022-07-28T23:54:16.197Z,7.00
2022-07-28T23:56:45.972Z,8.00
2022-07-28T23:59:15.539Z,7.00
